Time;durP1;ratioP1;P1;durP2;ratioP2;P2;SDS_P1;SDS_P2;PMS_P1;PMS_P2;Temp;Humidity;BMP_temperature;BMP_pressure;BME280_temperature;BME280_humidity;BME280_pressure;Samples;Min_cycle;Max_cycle;Signal;HPM_P1;HPM_P2
2023/01/10 00:02:13;;;;;;;71.68;16.77;;;;;;;;;;6059729;23;20106;-46
2023/01/10 00:04:40;;;;;;;61.35;17.75;;;;;;;;;;6061252;23;20027;-46
2023/01/10 00:07:14;;;;;;;55.05;16.95;;;;;;;;;;6060917;23;20022;-45
2023/01/10 00:09:41;;;;;;;74.78;18.42;;;;;;;;;;6060615;23;20037;-45
2023/01/10 00:15:01;;;;;;;69.03;17.63;;;;;;;;;;6062640;23;20101;-60
2023/01/10 00:17:35;;;;;;;63.25;17.40;;;;;;;;;;6059583;23;20848;-53
2023/01/10 00:20:02;;;;;;;92.70;20.52;;;;;;;;;;6062095;23;20050;-51
2023/01/10 00:22:29;;;;;;;82.25;19.58;;;;;;;;;;6058407;23;20106;-54
2023/01/10 00:25:03;;;;;;;72.70;20.10;;;;;;;;;;6060920;23;20027;-51
2023/01/10 00:27:30;;;;;;;99.43;19.38;;;;;;;;;;6060858;23;20065;-54
2023/01/10 00:30:14;;;;;;;73.72;19.88;;;;;;;;;;6062211;23;20050;-54
2023/01/10 00:32:41;;;;;;;66.88;16.60;;;;;;;;;;6059322;23;20050;-60
2023/01/10 00:35:15;;;;;;;63.28;17.73;;;;;;;;;;6061179;23;20109;-58
2023/01/10 00:37:42;;;;;;;51.83;15.82;;;;;;;;;;6059835;23;20056;-58
2023/01/10 00:40:10;;;;;;;54.50;16.75;;;;;;;;;;6060226;23;20409;-59
2023/01/10 00:45:30;;;;;;;67.55;19.10;;;;;;;;;;6059839;23;20074;-59
2023/01/10 00:48:04;;;;;;;79.72;20.05;;;;;;;;;;6060017;23;20109;-59
2023/01/10 00:50:31;;;;;;;70.90;20.05;;;;;;;;;;6060546;23;20106;-60
2023/01/10 00:53:05;;;;;;;59.88;18.05;;;;;;;;;;6059006;23;20037;-50
2023/01/10 00:55:33;;;;;;;57.65;16.00;;;;;;;;;;6061180;23;20050;-50
2023/01/10 00:58:00;;;;;;;;;;;;;;;;;;6060775;23;20030;-50
2023/01/10 01:00:34;;;;;;;56.13;17.17;;;;;;;;;;6060913;23;20262;-49
2023/01/10 01:03:01;;;;;;;64.93;18.10;;;;;;;;;;6060840;23;20138;-50
2023/01/10 01:05:42;;;;;;;78.57;18.20;;;;;;;;;;6061808;23;20029;-51
2023/01/10 01:08:10;;;;;;;96.05;20.17;;;;;;;;;;6058846;23;20029;-45
2023/01/10 01:10:44;;;;;;;78.20;18.52;;;;;;;;;;6061700;23;20022;-45
2023/01/10 01:13:29;;;;;;;91.93;18.77;;;;;;;;;;6059935;23;20054;-48
2023/01/10 01:16:03;;;;;;;79.50;16.63;;;;;;;;;;6060664;23;20027;-45
2023/01/10 01:18:31;;;;;;;78.22;17.60;;;;;;;;;;6060634;23;20037;-47
2023/01/10 01:21:07;;;;;;;66.47;16.58;;;;;;;;;;6060448;23;20101;-46
2023/01/10 01:23:34;;;;;;;97.80;19.48;;;;;;;;;;6060240;23;20093;-48
2023/01/10 01:26:01;;;;;;;76.88;17.13;;;;;;;;;;6059938;23;20098;-45
2023/01/10 01:28:35;;;;;;;70.30;15.63;;;;;;;;;;6061180;23;20029;-50
2023/01/10 01:31:09;;;;;;;65.25;17.25;;;;;;;;;;6059611;23;20019;-60
2023/01/10 01:33:43;;;;;;;54.85;15.15;;;;;;;;;;6059498;23;20058;-60
2023/01/10 01:36:11;;;;;;;59.40;16.65;;;;;;;;;;6060803;23;20027;-60
2023/01/10 01:38:38;;;;;;;;;;;;;;;;;;6059494;23;20481;-60
2023/01/10 01:44:10;;;;;;;69.40;16.17;;;;;;;;;;6060061;23;20445;-60
2023/01/10 01:46:46;;;;;;;70.53;15.88;;;;;;;;;;6057933;23;20050;-75
2023/01/10 01:49:15;;;;;;;82.10;17.45;;;;;;;;;;6059349;23;20465;-52
2023/01/10 01:51:44;;;;;;;65.60;15.75;;;;;;;;;;6060425;23;20187;-52
2023/01/10 01:54:18;;;;;;;60.42;15.75;;;;;;;;;;6061030;23;20023;-51
2023/01/10 01:56:48;;;;;;;53.90;15.43;;;;;;;;;;6058454;23;20414;-50
2023/01/10 01:59:39;;;;;;;48.35;15.48;;;;;;;;;;6060489;23;20030;-52
2023/01/10 02:02:10;;;;;;;65.50;17.30;;;;;;;;;;6060343;23;20441;-53
2023/01/10 02:04:49;;;;;;;73.45;16.85;;;;;;;;;;6060189;23;20589;-60
2023/01/10 02:07:17;;;;;;;65.50;16.30;;;;;;;;;;6059658;23;20019;-60
2023/01/10 02:09:55;;;;;;;64.93;17.58;;;;;;;;;;6060738;23;20069;-60
2023/01/10 02:12:29;;;;;;;64.75;16.60;;;;;;;;;;6060084;23;20098;-61
2023/01/10 02:14:57;;;;;;;65.93;17.65;;;;;;;;;;6059530;23;20552;-60
2023/01/10 02:17:45;;;;;;;64.22;17.75;;;;;;;;;;6058926;23;20105;-60
2023/01/10 02:20:12;;;;;;;66.75;18.52;;;;;;;;;;6059475;23;20082;-60
2023/01/10 02:22:59;;;;;;;58.13;18.60;;;;;;;;;;6059791;23;20019;-50
2023/01/10 02:25:33;;;;;;;94.82;18.25;;;;;;;;;;6060174;23;20399;-70
2023/01/10 02:28:12;;;;;;;79.60;18.33;;;;;;;;;;6059588;23;20772;-70
2023/01/10 02:30:58;;;;;;;68.75;18.75;;;;;;;;;;6060598;23;20556;-69
2023/01/10 02:33:32;;;;;;;76.38;19.38;;;;;;;;;;6058662;23;20054;-70
2023/01/10 02:36:02;;;;;;;64.15;17.42;;;;;;;;;;6059417;23;20062;-70
2023/01/10 02:38:55;;;;;;;79.78;21.48;;;;;;;;;;6059916;23;20059;-70
2023/01/10 02:41:39;;;;;;;85.65;19.13;;;;;;;;;;6059688;23;20066;-60
2023/01/10 02:44:27;;;;;;;87.30;19.85;;;;;;;;;;6060104;23;20050;-59
2023/01/10 02:47:04;;;;;;;66.50;18.90;;;;;;;;;;6061225;23;20023;-59
2023/01/10 02:49:40;;;;;;;92.43;20.58;;;;;;;;;;6061044;23;20025;-58
2023/01/10 02:52:17;;;;;;;76.93;19.40;;;;;;;;;;6059885;23;20448;-58
2023/01/10 02:54:45;;;;;;;83.25;19.35;;;;;;;;;;6063186;23;20098;-59
2023/01/10 02:57:21;;;;;;;83.82;19.55;;;;;;;;;;6061306;23;20033;-59
2023/01/10 03:00:17;;;;;;;86.90;20.05;;;;;;;;;;6061980;23;20431;-60
2023/01/10 03:02:44;;;;;;;92.75;20.88;;;;;;;;;;6060215;23;20066;-72
2023/01/10 03:05:27;;;;;;;72.88;17.92;;;;;;;;;;6061742;23;20023;-72
2023/01/10 03:08:12;;;;;;;86.18;18.05;;;;;;;;;;6061330;23;20471;-72
2023/01/10 03:10:52;;;;;;;68.35;16.13;;;;;;;;;;6061547;23;20094;-72
2023/01/10 03:13:23;;;;;;;101.75;19.55;;;;;;;;;;6061225;23;20033;-73
2023/01/10 03:15:58;;;;;;;95.68;19.80;;;;;;;;;;6060699;23;20029;-72
2023/01/10 03:18:31;;;;;;;59.75;15.65;;;;;;;;;;6062223;23;20027;-50
2023/01/10 03:21:07;;;;;;;58.25;16.13;;;;;;;;;;6060758;23;20153;-60
2023/01/10 03:23:34;;;;;;;82.00;19.05;;;;;;;;;;6062095;23;20130;-60
2023/01/10 03:26:02;;;;;;;82.47;18.33;;;;;;;;;;6062093;23;20027;-59
2023/01/10 03:28:39;;;;;;;88.22;18.33;;;;;;;;;;6060976;23;20507;-60
2023/01/10 03:31:09;;;;;;;75.22;17.63;;;;;;;;;;6062173;23;20589;-60
2023/01/10 03:33:43;;;;;;;101.13;19.20;;;;;;;;;;6062085;23;20026;-60
2023/01/10 03:36:21;;;;;;;93.50;20.13;;;;;;;;;;6060775;23;20477;-49
2023/01/10 03:39:08;;;;;;;89.07;19.15;;;;;;;;;;6061730;23;20505;-45
2023/01/10 03:41:38;;;;;;;100.35;18.60;;;;;;;;;;6061979;23;20097;-45
2023/01/10 03:47:05;;;;;;;53.80;15.13;;;;;;;;;;6060494;23;20097;-45
2023/01/10 03:49:40;;;;;;;59.92;16.05;;;;;;;;;;6061157;23;20362;-49
2023/01/10 03:52:09;;;;;;;63.70;16.55;;;;;;;;;;6061081;23;20101;-45
2023/01/10 03:54:44;;;;;;;56.88;16.35;;;;;;;;;;6061187;23;20483;-69
2023/01/10 03:57:25;;;;;;;91.05;18.58;;;;;;;;;;6060307;23;20066;-54
2023/01/10 04:00:06;;;;;;;110.35;20.92;;;;;;;;;;6061030;23;20027;-53
2023/01/10 04:02:33;;;;;;;92.20;19.42;;;;;;;;;;6061359;23;20066;-52
2023/01/10 04:05:08;;;;;;;75.18;18.55;;;;;;;;;;6061601;23;20348;-52
2023/01/10 04:07:35;;;;;;;110.00;20.70;;;;;;;;;;6061365;23;20327;-55
2023/01/10 04:10:02;;;;;;;;;;;;;;;;;;6060783;23;20102;-54
2023/01/10 04:12:36;;;;;;;75.95;17.02;;;;;;;;;;6061487;23;20555;-58
2023/01/10 04:15:03;;;;;;;82.05;18.17;;;;;;;;;;6060577;23;20062;-60
2023/01/10 04:17:31;;;;;;;;;;;;;;;;;;6060123;23;20058;-60
2023/01/10 04:20:04;;;;;;;70.25;16.75;;;;;;;;;;6060030;23;19928;-60
2023/01/10 04:22:31;;;;;;;58.03;16.25;;;;;;;;;;6060554;23;20407;-60
2023/01/10 04:25:05;;;;;;;66.78;16.67;;;;;;;;;;6061234;23;20105;-60
2023/01/10 04:27:32;;;;;;;;;;;;;;;;;;6061875;23;20102;-60
2023/01/10 04:29:59;;;;;;;70.88;16.83;;;;;;;;;;6060979;23;19922;-58
2023/01/10 04:32:34;;;;;;;78.88;16.35;;;;;;;;;;6061482;23;20368;-49
2023/01/10 04:35:01;;;;;;;;;;;;;;;;;;6060572;23;20587;-72
2023/01/10 04:37:34;;;;;;;83.93;16.65;;;;;;;;;;6061584;23;19928;-72
2023/01/10 04:40:01;;;;;;;65.50;15.73;;;;;;;;;;6062239;23;20105;-72
2023/01/10 04:42:29;;;;;;;80.60;17.50;;;;;;;;;;6059780;23;20310;-72
2023/01/10 04:45:03;;;;;;;103.70;18.13;;;;;;;;;;6061277;23;20062;-73
2023/01/10 04:47:30;;;;;;;83.05;17.08;;;;;;;;;;6060561;23;20095;-73
2023/01/10 04:50:04;;;;;;;59.08;14.38;;;;;;;;;;6059985;23;20097;-59
2023/01/10 04:52:31;;;;;;;75.47;15.00;;;;;;;;;;6060673;23;20062;-45
2023/01/10 04:54:58;;;;;;;60.88;14.52;;;;;;;;;;6061450;23;20042;-45
2023/01/10 04:57:39;;;;;;;62.10;17.60;;;;;;;;;;6059804;23;20027;-47
2023/01/10 05:00:13;;;;;;;79.95;17.40;;;;;;;;;;6055707;23;20031;-49
2023/01/10 05:02:47;;;;;;;70.68;16.75;;;;;;;;;;6060535;23;20132;-48
2023/01/10 05:05:14;;;;;;;71.10;17.40;;;;;;;;;;6061272;23;20034;-47
2023/01/10 05:07:45;;;;;;;75.22;16.90;;;;;;;;;;6061123;23;20023;-53
2023/01/10 05:10:19;;;;;;;70.95;15.40;;;;;;;;;;6060759;23;20491;-53
2023/01/10 05:12:46;;;;;;;;;;;;;;;;;;6061307;23;20500;-49
2023/01/10 05:15:21;;;;;;;69.32;14.10;;;;;;;;;;6061084;23;19922;-52
2023/01/10 05:17:50;;;;;;;60.95;12.82;;;;;;;;;;6061645;23;20398;-51
2023/01/10 05:20:17;;;;;;;59.90;14.93;;;;;;;;;;6058569;23;20023;-53
2023/01/10 05:22:51;;;;;;;46.78;13.30;;;;;;;;;;6060067;23;20019;-50
2023/01/10 05:25:18;;;;;;;59.15;13.32;;;;;;;;;;6059777;23;20541;-54
2023/01/10 05:27:52;;;;;;;64.70;14.50;;;;;;;;;;6057049;23;20058;-59
2023/01/10 05:30:19;;;;;;;54.20;12.77;;;;;;;;;;6060469;23;20137;-58
2023/01/10 05:32:47;;;;;;;52.22;11.45;;;;;;;;;;6060427;23;20042;-59
2023/01/10 05:35:20;;;;;;;47.40;11.55;;;;;;;;;;6059035;23;20537;-59
2023/01/10 05:37:47;;;;;;;58.65;11.95;;;;;;;;;;6057521;23;20101;-59
2023/01/10 05:40:21;;;;;;;50.97;11.43;;;;;;;;;;6055288;23;20027;-59
2023/01/10 05:42:48;;;;;;;52.03;9.32;;;;;;;;;;6055224;23;20401;-59
2023/01/10 05:45:15;;;;;;;50.40;10.80;;;;;;;;;;6055877;23;20029;-69
2023/01/10 05:47:49;;;;;;;42.08;10.48;;;;;;;;;;6057115;23;20029;-47
2023/01/10 05:50:16;;;;;;;35.70;9.50;;;;;;;;;;6056648;23;20027;-48
2023/01/10 05:52:50;;;;;;;58.40;9.88;;;;;;;;;;6057742;23;20572;-47
2023/01/10 05:55:17;;;;;;;37.60;8.75;;;;;;;;;;6059756;23;20458;-45
2023/01/10 05:57:51;;;;;;;33.47;8.68;;;;;;;;;;6058337;23;20105;-47
2023/01/10 06:00:32;;;;;;;48.05;8.82;;;;;;;;;;6058541;23;20022;-45
2023/01/10 06:02:59;;;;;;;45.10;8.32;;;;;;;;;;6060391;23;20019;-58
2023/01/10 06:05:33;;;;;;;55.28;9.98;;;;;;;;;;6059116;23;20338;-70
2023/01/10 06:08:00;;;;;;;37.88;10.00;;;;;;;;;;6059691;23;20027;-70
2023/01/10 06:10:28;;;;;;;37.67;9.13;;;;;;;;;;6059476;23;20134;-70
2023/01/10 06:13:01;;;;;;;44.50;10.55;;;;;;;;;;6060869;23;20055;-69
2023/01/10 06:15:28;;;;;;;41.63;9.60;;;;;;;;;;6059472;23;20022;-71
2023/01/10 06:18:02;;;;;;;38.40;9.13;;;;;;;;;;6060893;23;20023;-70
2023/01/10 06:20:30;;;;;;;35.60;7.70;;;;;;;;;;6058754;23;20033;-53
2023/01/10 06:22:59;;;;;;;;;;;;;;;;;;6062233;23;20073;-46
2023/01/10 06:25:35;;;;;;;34.20;8.30;;;;;;;;;;6061249;23;20344;-49
2023/01/10 06:28:03;;;;;;;26.52;7.93;;;;;;;;;;6062364;23;20489;-45
2023/01/10 06:30:30;;;;;;;35.97;7.05;;;;;;;;;;6061945;23;20029;-48
2023/01/10 06:33:05;;;;;;;39.45;8.05;;;;;;;;;;6061336;23;20491;-46
2023/01/10 06:35:32;;;;;;;47.05;7.22;;;;;;;;;;6062027;23;20409;-45
2023/01/10 06:38:06;;;;;;;29.25;6.72;;;;;;;;;;6062022;23;20038;-47
2023/01/10 06:40:33;;;;;;;29.48;6.85;;;;;;;;;;6061796;23;20037;-60
2023/01/10 06:43:00;;;;;;;25.27;6.40;;;;;;;;;;6062354;23;20082;-58
2023/01/10 06:45:34;;;;;;;36.10;6.43;;;;;;;;;;6062231;23;20019;-60
2023/01/10 06:48:01;;;;;;;30.33;6.55;;;;;;;;;;6059796;23;20062;-59
2023/01/10 06:50:35;;;;;;;41.05;6.72;;;;;;;;;;6063029;23;20105;-60
2023/01/10 06:53:03;;;;;;;32.40;6.43;;;;;;;;;;6061131;23;20407;-59
2023/01/10 06:55:37;;;;;;;29.85;6.75;;;;;;;;;;6061435;23;20398;-59
2023/01/10 06:58:04;;;;;;;23.65;5.90;;;;;;;;;;6061314;23;20031;-60
2023/01/10 07:00:39;;;;;;;32.03;5.70;;;;;;;;;;6061909;23;20027;-50
2023/01/10 07:03:06;;;;;;;23.55;5.80;;;;;;;;;;6061127;23;20022;-49
2023/01/10 07:05:33;;;;;;;;;;;;;;;;;;6061925;23;20033;-50
2023/01/10 07:08:07;;;;;;;29.52;5.18;;;;;;;;;;6061499;23;19918;-54
2023/01/10 07:10:34;;;;;;;19.02;4.80;;;;;;;;;;6061854;23;20054;-48
2023/01/10 07:13:08;;;;;;;26.60;5.03;;;;;;;;;;6062278;23;20102;-50
2023/01/10 07:15:36;;;;;;;23.42;4.68;;;;;;;;;;6061610;23;20145;-48
2023/01/10 07:18:10;;;;;;;38.40;5.68;;;;;;;;;;6060793;23;20057;-69
2023/01/10 07:20:38;;;;;;;28.17;5.43;;;;;;;;;;6061611;23;20405;-69
2023/01/10 07:23:06;;;;;;;35.78;5.55;;;;;;;;;;6061766;23;20058;-69
2023/01/10 07:25:40;;;;;;;38.28;7.57;;;;;;;;;;6061123;23;20033;-69
2023/01/10 07:28:07;;;;;;;24.05;6.00;;;;;;;;;;6062339;23;20019;-70
2023/01/10 07:30:41;;;;;;;33.63;6.07;;;;;;;;;;6061650;23;20037;-68
2023/01/10 07:33:08;;;;;;;22.17;5.55;;;;;;;;;;6058497;23;20409;-70
2023/01/10 07:35:35;;;;;;;27.38;6.30;;;;;;;;;;6059919;23;20058;-51
2023/01/10 07:38:09;;;;;;;29.70;6.30;;;;;;;;;;6060140;23;20469;-70
2023/01/10 07:40:36;;;;;;;30.27;6.07;;;;;;;;;;6061176;23;20031;-70
2023/01/10 07:43:10;;;;;;;33.83;5.90;;;;;;;;;;6062006;23;20031;-70
2023/01/10 07:45:37;;;;;;;27.00;5.63;;;;;;;;;;6061709;23;20093;-70
2023/01/10 07:48:05;;;;;;;35.15;6.78;;;;;;;;;;6061173;23;20330;-70
2023/01/10 07:50:39;;;;;;;33.83;6.05;;;;;;;;;;6061715;23;20129;-70
2023/01/10 07:53:07;;;;;;;28.75;6.18;;;;;;;;;;6060938;23;20029;-60
2023/01/10 07:55:44;;;;;;;33.38;6.95;;;;;;;;;;6059873;23;20061;-60
2023/01/10 07:58:18;;;;;;;33.35;6.47;;;;;;;;;;6059773;23;20342;-60
2023/01/10 08:01:00;;;;;;;23.02;5.45;;;;;;;;;;6061190;23;20102;-60
2023/01/10 08:03:28;;;;;;;33.85;6.38;;;;;;;;;;6060535;23;20027;-60
2023/01/10 08:06:04;;;;;;;41.17;7.78;;;;;;;;;;6061499;23;20023;-60
2023/01/10 08:08:32;;;;;;;33.00;7.60;;;;;;;;;;6060948;23;20019;-60
2023/01/10 08:11:01;;;;;;;35.92;7.50;;;;;;;;;;6060940;23;20094;-60
2023/01/10 08:13:35;;;;;;;38.90;7.78;;;;;;;;;;6061254;23;20071;-52
2023/01/10 08:16:06;;;;;;;30.05;7.88;;;;;;;;;;6061335;23;20065;-54
2023/01/10 08:18:42;;;;;;;45.08;8.05;;;;;;;;;;6059763;23;20060;-52
2023/01/10 08:21:09;;;;;;;47.03;8.85;;;;;;;;;;6059432;23;20106;-51
2023/01/10 08:23:36;;;;;;;;;;;;;;;;;;6061260;23;20062;-51
2023/01/10 08:26:10;;;;;;;29.17;6.38;;;;;;;;;;6060775;23;20289;-52
2023/01/10 08:28:37;;;;;;;45.05;7.13;;;;;;;;;;6062153;23;20065;-58
2023/01/10 08:31:05;;;;;;;29.73;6.90;;;;;;;;;;6060279;23;20062;-60
2023/01/10 08:33:40;;;;;;;34.85;8.60;;;;;;;;;;6060833;23;20030;-60
2023/01/10 08:36:15;;;;;;;38.67;8.35;;;;;;;;;;6060169;23;20061;-60
2023/01/10 08:38:49;;;;;;;28.52;8.18;;;;;;;;;;6060268;23;20102;-60
2023/01/10 08:41:17;;;;;;;34.95;10.60;;;;;;;;;;6059873;23;20022;-60
2023/01/10 08:43:44;;;;;;;39.35;9.77;;;;;;;;;;6061768;23;20106;-61
2023/01/10 08:46:18;;;;;;;54.88;10.27;;;;;;;;;;6060648;23;20342;-60
2023/01/10 08:48:47;;;;;;;32.78;9.23;;;;;;;;;;6060860;23;20031;-60
2023/01/10 08:51:21;;;;;;;37.20;9.95;;;;;;;;;;6060892;23;20045;-45
2023/01/10 08:53:48;;;;;;;48.40;10.60;;;;;;;;;;6060757;23;20023;-48
2023/01/10 08:56:16;;;;;;;34.05;8.65;;;;;;;;;;6060401;23;20424;-45
2023/01/10 08:58:56;;;;;;;42.05;10.38;;;;;;;;;;6060412;23;20023;-46
2023/01/10 09:01:30;;;;;;;35.17;10.00;;;;;;;;;;6060511;23;20073;-45
2023/01/10 09:04:04;;;;;;;47.92;9.90;;;;;;;;;;6060331;23;20465;-46
2023/01/10 09:06:31;;;;;;;40.13;10.18;;;;;;;;;;6060463;23;20031;-72
2023/01/10 09:08:58;;;;;;;39.55;9.48;;;;;;;;;;6059831;23;20219;-60
2023/01/10 09:11:32;;;;;;;29.27;8.85;;;;;;;;;;6060331;23;20552;-61
2023/01/10 09:13:59;;;;;;;36.13;8.95;;;;;;;;;;6060512;23;20026;-60
2023/01/10 09:16:26;;;;;;;42.95;9.15;;;;;;;;;;6060192;23;20058;-60
2023/01/10 09:19:00;;;;;;;47.03;9.98;;;;;;;;;;6060027;23;20023;-60
2023/01/10 09:21:28;;;;;;;40.25;10.10;;;;;;;;;;6060416;23;20026;-60
2023/01/10 09:24:01;;;;;;;41.22;10.23;;;;;;;;;;6059111;23;20667;-49
2023/01/10 09:26:28;;;;;;;46.63;10.05;;;;;;;;;;6061015;23;20345;-69
2023/01/10 09:28:55;;;;;;;35.30;10.20;;;;;;;;;;6061092;23;20102;-72
2023/01/10 09:31:29;;;;;;;43.83;10.13;;;;;;;;;;6060915;23;20025;-73
2023/01/10 09:33:56;;;;;;;41.95;10.02;;;;;;;;;;6060660;23;20031;-72
2023/01/10 09:36:31;;;;;;;46.63;10.13;;;;;;;;;;6060477;23;20051;-72
2023/01/10 09:38:58;;;;;;;36.90;9.00;;;;;;;;;;6059808;23;20030;-72
2023/01/10 09:41:40;;;;;;;39.85;9.75;;;;;;;;;;6060062;23;20030;-72
2023/01/10 09:44:14;;;;;;;;;;;;;;;;;;6060094;23;20027;-75
2023/01/10 09:46:48;;;;;;;36.13;7.95;;;;;;;;;;6058084;23;20008;-52
2023/01/10 09:49:41;;;;;;;48.33;9.38;;;;;;;;;;6058792;23;20030;-52
2023/01/10 09:52:32;;;;;;;39.95;9.13;;;;;;;;;;6060004;23;20548;-49
2023/01/10 09:55:16;;;;;;;32.05;7.60;;;;;;;;;;6050310;23;20492;-48
2023/01/10 09:57:43;;;;;;;40.20;7.88;;;;;;;;;;6060755;23;20102;-48
2023/01/10 10:00:26;;;;;;;32.60;8.27;;;;;;;;;;6059149;23;20106;-49
2023/01/10 10:02:54;;;;;;;41.17;9.05;;;;;;;;;;6059283;23;20027;-60
2023/01/10 10:05:28;;;;;;;35.80;8.93;;;;;;;;;;6059296;23;20207;-50
2023/01/10 10:07:57;;;;;;;30.25;8.18;;;;;;;;;;6061036;23;20075;-51
2023/01/10 10:10:34;;;;;;;31.98;8.60;;;;;;;;;;6059798;23;20030;-51
2023/01/10 10:13:31;;;;;;;37.85;8.98;;;;;;;;;;6058752;23;20023;-50
2023/01/10 10:16:09;;;;;;;47.30;9.48;;;;;;;;;;6059190;23;20166;-51
2023/01/10 10:19:01;;;;;;;32.97;7.60;;;;;;;;;;6059020;23;20034;-50
2023/01/10 10:21:32;;;;;;;44.22;8.98;;;;;;;;;;6059219;23;20027;-60
2023/01/10 10:24:06;;;;;;;;;;;;;;;;;;6059628;23;20025;-58
2023/01/10 10:26:34;;;;;;;42.72;9.07;;;;;;;;;;6059852;23;19968;-58
2023/01/10 10:29:24;;;;;;;34.35;8.82;;;;;;;;;;6059530;23;20022;-59
2023/01/10 10:31:58;;;;;;;49.30;9.93;;;;;;;;;;6060858;23;20105;-59
2023/01/10 10:34:36;;;;;;;36.08;9.82;;;;;;;;;;6060948;23;20055;-59
2023/01/10 10:37:15;;;;;;;48.40;9.50;;;;;;;;;;6060556;23;20027;-58
2023/01/10 10:40:28;;;;;;;39.63;7.65;;;;;;;;;;6059589;23;20802;-58
2023/01/10 10:43:11;;;;;;;34.58;8.20;;;;;;;;;;6000349;23;20099;-60
2023/01/10 10:45:43;;;;;;;32.63;8.20;;;;;;;;;;5999608;23;20051;-61
2023/01/10 10:48:31;;;;;;;29.42;8.13;;;;;;;;;;6039926;23;20086;-61
2023/01/10 10:51:15;;;;;;;43.13;8.55;;;;;;;;;;6059521;23;20102;-60
2023/01/10 10:53:42;;;;;;;34.85;8.00;;;;;;;;;;6058330;23;20106;-60
2023/01/10 10:56:19;;;;;;;27.50;7.03;;;;;;;;;;6059784;23;20756;-46
2023/01/10 10:58:56;;;;;;;35.85;6.60;;;;;;;;;;6060021;23;20544;-69
2023/01/10 11:01:36;;;;;;;28.55;6.05;;;;;;;;;;6059737;23;20110;-70
2023/01/10 11:04:22;;;;;;;33.58;6.60;;;;;;;;;;6059412;23;20097;-69
2023/01/10 11:06:56;;;;;;;35.42;5.93;;;;;;;;;;6062179;23;20104;-69
2023/01/10 11:12:31;;;;;;;26.42;5.97;;;;;;;;;;5983726;23;20028;-70
2023/01/10 11:15:05;;;;;;;46.00;6.65;;;;;;;;;;6061123;23;20065;-60
2023/01/10 11:17:39;;;;;;;;;;;;;;;;;;6062329;23;20262;-60
2023/01/10 11:20:15;;;;;;;41.03;6.38;;;;;;;;;;6061458;23;19992;-61
2023/01/10 11:22:52;;;;;;;34.95;5.00;;;;;;;;;;6061781;23;20023;-60
2023/01/10 11:25:25;;;;;;;28.98;4.43;;;;;;;;;;6060648;23;20027;-60
2023/01/10 11:27:59;;;;;;;24.15;4.72;;;;;;;;;;6062577;23;20023;-60
2023/01/10 11:30:36;;;;;;;28.27;5.15;;;;;;;;;;6060341;23;20034;-60
2023/01/10 11:33:07;;;;;;;24.92;4.18;;;;;;;;;;6061147;23;20022;-71
2023/01/10 11:35:55;;;;;;;41.85;4.95;;;;;;;;;;6060200;23;20102;-60
2023/01/10 11:38:23;;;;;;;18.05;3.83;;;;;;;;;;6060765;23;20098;-60
2023/01/10 11:41:01;;;;;;;30.75;5.03;;;;;;;;;;6056822;23;20053;-60
2023/01/10 11:43:30;;;;;;;33.75;4.78;;;;;;;;;;6052516;23;20027;-59
2023/01/10 11:46:15;;;;;;;26.17;4.43;;;;;;;;;;6061521;23;20520;-60
2023/01/10 11:49:02;;;;;;;32.22;3.85;;;;;;;;;;6061444;23;20102;-60
2023/01/10 11:51:37;;;;;;;32.13;4.65;;;;;;;;;;6061784;23;20098;-53
2023/01/10 11:54:06;;;;;;;35.97;4.22;;;;;;;;;;6061161;23;20033;-60
2023/01/10 11:56:40;;;;;;;24.15;3.65;;;;;;;;;;6060930;23;20366;-60
2023/01/10 11:59:17;;;;;;;31.40;4.55;;;;;;;;;;6060729;23;20019;-60
2023/01/10 12:01:56;;;;;;;25.25;4.40;;;;;;;;;;6061338;23;20030;-60
2023/01/10 12:04:23;;;;;;;28.98;4.70;;;;;;;;;;6060335;23;20023;-60
2023/01/10 12:06:59;;;;;;;30.42;4.30;;;;;;;;;;6061881;23;20054;-60
2023/01/10 12:09:32;;;;;;;30.52;4.28;;;;;;;;;;6061329;23;20029;-59
2023/01/10 12:12:15;;;;;;;24.40;4.65;;;;;;;;;;6061676;23;20054;-74
2023/01/10 12:14:43;;;;;;;30.30;4.83;;;;;;;;;;6060139;23;20465;-69
2023/01/10 12:17:20;;;;;;;30.77;4.78;;;;;;;;;;6061328;23;20050;-70
2023/01/10 12:19:48;;;;;;;39.63;5.13;;;;;;;;;;6059823;23;20033;-70
2023/01/10 12:22:15;;;;;;;29.35;4.78;;;;;;;;;;6060082;23;20057;-70
2023/01/10 12:24:51;;;;;;;29.80;4.75;;;;;;;;;;6061424;23;20019;-70
2023/01/10 12:27:18;;;;;;;33.65;4.60;;;;;;;;;;6061075;23;20038;-70
2023/01/10 12:30:00;;;;;;;33.60;4.45;;;;;;;;;;6060311;23;20050;-60
2023/01/10 12:32:30;;;;;;;33.08;5.60;;;;;;;;;;6060962;23;20623;-50
2023/01/10 12:35:07;;;;;;;40.38;4.85;;;;;;;;;;6061337;23;20313;-49
2023/01/10 12:37:43;;;;;;;36.72;5.05;;;;;;;;;;6060297;23;20105;-54
2023/01/10 12:40:36;;;;;;;32.72;5.45;;;;;;;;;;6061024;23;20102;-52
2023/01/10 12:46:03;;;;;;;32.53;4.07;;;;;;;;;;6061388;23;20069;-59
2023/01/10 12:48:48;;;;;;;30.00;4.30;;;;;;;;;;6060691;23;20031;-60
2023/01/10 12:51:23;;;;;;;31.02;4.32;;;;;;;;;;6060003;23;20101;-51
2023/01/10 12:53:55;;;;;;;53.13;5.50;;;;;;;;;;6059781;23;20871;-53
2023/01/10 12:56:28;;;;;;;33.63;5.18;;;;;;;;;;6061655;23;20030;-48
2023/01/10 12:59:19;;;;;;;27.98;5.18;;;;;;;;;;6059583;23;20647;-54
2023/01/10 13:02:16;;;;;;;33.50;4.35;;;;;;;;;;6061160;23;20026;-47
2023/01/10 13:04:47;;;;;;;36.83;4.70;;;;;;;;;;6060099;23;20054;-49
2023/01/10 13:07:22;;;;;;;33.40;6.45;;;;;;;;;;6060966;23;20023;-60
2023/01/10 13:09:49;;;;;;;43.60;5.25;;;;;;;;;;6061007;23;20069;-59
2023/01/10 13:12:29;;;;;;;43.03;5.88;;;;;;;;;;6059412;23;20026;-59
2023/01/10 13:15:10;;;;;;;48.53;5.15;;;;;;;;;;6060433;23;20054;-59
2023/01/10 13:17:48;;;;;;;43.05;5.35;;;;;;;;;;6059678;23;20019;-59
2023/01/10 13:20:16;;;;;;;45.63;5.07;;;;;;;;;;6060829;23;20035;-59
2023/01/10 13:22:57;;;;;;;61.72;5.50;;;;;;;;;;6060622;23;20098;-69
2023/01/10 13:25:29;;;;;;;34.83;4.80;;;;;;;;;;6060055;23;20070;-53
2023/01/10 13:28:02;;;;;;;;;;;;;;;;;;6060533;23;20050;-74
2023/01/10 13:30:36;;;;;;;51.72;5.00;;;;;;;;;;6060285;23;20025;-77
2023/01/10 13:33:24;;;;;;;58.80;6.30;;;;;;;;;;6060194;23;20434;-76
2023/01/10 13:35:52;;;;;;;39.85;5.70;;;;;;;;;;6059842;23;20030;-76
2023/01/10 13:38:30;;;;;;;53.15;5.15;;;;;;;;;;6060649;23;20339;-75
2023/01/10 13:40:59;;;;;;;42.72;5.40;;;;;;;;;;6060109;23;20027;-76
2023/01/10 13:43:33;;;;;;;41.60;5.25;;;;;;;;;;6060165;23;20431;-60
2023/01/10 13:46:23;;;;;;;36.05;4.70;;;;;;;;;;6059598;23;20353;-54
2023/01/10 13:48:50;;;;;;;32.95;4.30;;;;;;;;;;6059380;23;20402;-55
2023/01/10 13:51:24;;;;;;;31.48;5.30;;;;;;;;;;6059445;23;20109;-51
2023/01/10 13:54:01;;;;;;;32.95;4.85;;;;;;;;;;6060258;23;20058;-53
2023/01/10 13:56:37;;;;;;;37.03;4.72;;;;;;;;;;6061229;23;20101;-54
2023/01/10 14:02:33;;;;;;;34.58;4.30;;;;;;;;;;6061395;23;20034;-55
2023/01/10 14:05:02;;;;;;;43.70;5.20;;;;;;;;;;6059704;23;20026;-54
2023/01/10 14:07:34;;;;;;;35.22;5.70;;;;;;;;;;6059999;23;20105;-56
2023/01/10 14:10:25;;;;;;;38.78;4.40;;;;;;;;;;6059909;23;20114;-53
2023/01/10 14:13:09;;;;;;;46.45;5.03;;;;;;;;;;6060301;23;20023;-56
2023/01/10 14:15:41;;;;;;;30.67;4.55;;;;;;;;;;6059136;23;20023;-56
2023/01/10 14:18:15;;;;;;;;;;;;;;;;;;6059587;23;20485;-79
2023/01/10 14:20:42;;;;;;;34.47;4.40;;;;;;;;;;6060281;23;19928;-46
2023/01/10 14:23:09;;;;;;;;;;;;;;;;;;6060694;23;20062;-49
2023/01/10 14:25:44;;;;;;;28.55;4.22;;;;;;;;;;6060128;23;19988;-46
2023/01/10 14:28:21;;;;;;;50.13;5.75;;;;;;;;;;6059980;23;20066;-49
2023/01/10 14:31:14;;;;;;;23.98;4.07;;;;;;;;;;6060104;23;20106;-46
2023/01/10 14:33:42;;;;;;;29.42;4.07;;;;;;;;;;6060401;23;20027;-45
2023/01/10 14:36:19;;;;;;;31.45;4.13;;;;;;;;;;6058992;23;20034;-60
2023/01/10 14:38:47;;;;;;;25.25;3.90;;;;;;;;;;6060621;23;20073;-70
2023/01/10 14:41:29;;;;;;;34.30;4.82;;;;;;;;;;6061846;23;20027;-60
2023/01/10 14:44:00;;;;;;;34.80;4.20;;;;;;;;;;6062319;23;20059;-60
2023/01/10 14:46:54;;;;;;;28.23;4.90;;;;;;;;;;6060871;23;20106;-60
2023/01/10 14:49:26;;;;;;;32.65;5.18;;;;;;;;;;6061427;23;20057;-60
2023/01/10 14:52:13;;;;;;;24.48;5.25;;;;;;;;;;6061900;23;20106;-61
2023/01/10 14:54:40;;;;;;;33.50;5.35;;;;;;;;;;6061694;23;20031;-60
2023/01/10 14:57:17;;;;;;;31.38;5.50;;;;;;;;;;6060182;23;20110;-52
2023/01/10 15:00:02;;;;;;;33.22;6.90;;;;;;;;;;6062337;23;20101;-58
2023/01/10 15:02:36;;;;;;;37.22;5.30;;;;;;;;;;6061380;23;20417;-58
2023/01/10 15:05:26;;;;;;;52.20;7.28;;;;;;;;;;6061503;23;20487;-58
2023/01/10 15:08:19;;;;;;;38.15;6.78;;;;;;;;;;6062171;23;20030;-60
2023/01/10 15:10:47;;;;;;;38.67;7.18;;;;;;;;;;6061381;23;20097;-58
2023/01/10 15:13:23;;;;;;;31.98;6.43;;;;;;;;;;6060358;23;20487;-60
2023/01/10 15:15:50;;;;;;;41.38;8.05;;;;;;;;;;6060837;23;20098;-55
2023/01/10 15:18:37;;;;;;;37.83;6.93;;;;;;;;;;6061800;23;20360;-69
2023/01/10 15:21:04;;;;;;;43.88;7.38;;;;;;;;;;6059592;23;20101;-69
2023/01/10 15:23:39;;;;;;;58.28;7.13;;;;;;;;;;6062947;23;20059;-69
2023/01/10 15:26:09;;;;;;;50.80;8.18;;;;;;;;;;6061319;23;20056;-69
2023/01/10 15:28:36;;;;;;;47.47;9.05;;;;;;;;;;6062801;23;20046;-70
2023/01/10 15:31:15;;;;;;;41.20;8.27;;;;;;;;;;6061173;23;20029;-70